Kaami — C6VO9 — position and weather

sailwx.info

Track history (hours):
 
Tides and Currents Weather Stations Pressure Air Temp Water Temp Dewpoint Dewpoint Depression Visibility Wind Speed Wind Dir Waves Ship Positions

Kaami

Last reported at 2017-Jan-24 07:16 UTC. Time now 2017-Jan-24 23:30 UTC.
Position N 60°05' E 019°16'.

Length 90 m; draft 3.5 m.

Type: Cargo ship. MMSI: 308542000.

Date/timePositionNaut miles runAvg speedWind from/ knotsBaromVisibWave heightAir tempDewpointWater temp
2017-Jan-24 07:16N 60°05' E 019°16'7 9.1
2017-Jan-24 06:33N 59°60' E 019°25'13 8.9
2017-Jan-24 05:08N 59°50' E 019°41'8 8.8
2017-Jan-24 04:11N 59°43' E 019°51'  
2017-Jan-20 20:32N 55°35' E 015°17'8 8.3
2017-Jan-20 19:33N 55°31' E 015°04'8 8.4
2017-Jan-20 18:33N 55°27' E 014°51'9 8.6
2017-Jan-20 17:33N 55°22' E 014°38'8 8.1
2017-Jan-20 16:33N 55°16' E 014°30'6 6.2
2017-Jan-20 15:33N 55°10' E 014°28'7 7.1
2017-Jan-20 14:33N 55°05' E 014°38'2 1.7
2017-Jan-20 13:31N 55°06' E 014°41'0 0.0
2017-Jan-20 12:31N 55°06' E 014°41'0 0.0
2017-Jan-20 11:31N 55°06' E 014°41'0 0.0
2017-Jan-20 10:31N 55°06' E 014°41'0 0.0
2017-Jan-20 09:31N 55°06' E 014°41'0 0.0
2017-Jan-20 08:31N 55°06' E 014°41'0 0.0
2017-Jan-20 07:31N 55°06' E 014°41'0 0.0
2017-Jan-20 06:31N 55°06' E 014°41'0 0.0
2017-Jan-20 05:31N 55°06' E 014°41'0 0.0
2017-Jan-20 04:31N 55°06' E 014°41'0 0.0
2017-Jan-20 03:31N 55°06' E 014°41'0 0.0
2017-Jan-20 02:31N 55°06' E 014°41'0 0.0
2017-Jan-20 01:31N 55°06' E 014°41'0 0.0
2017-Jan-20 00:31N 55°06' E 014°41'0 0.0
2017-Jan-19 23:31N 55°06' E 014°41'0 0.0
2017-Jan-19 22:31N 55°06' E 014°41'0 0.0
2017-Jan-19 21:31N 55°06' E 014°41'0 0.0
2017-Jan-19 20:33N 55°06' E 014°41'4 4.1
2017-Jan-19 19:33N 55°05' E 014°34'1010.1
2017-Jan-19 18:34N 55°07' E 014°17'1010.3
2017-Jan-19 17:33N 55°09' E 013°59'10 9.8
2017-Jan-19 16:31N 55°11' E 013°42'21 9.9
2017-Jan-19 14:22N 55°14' E 013°05'1010.1
2017-Jan-19 13:24N 55°16' E 012°48'7 8.0
2017-Jan-19 12:33N 55°20' E 012°39'9 9.2
2017-Jan-19 11:34N 55°30' E 012°41'9 9.3
2017-Jan-19 10:33N 55°39' E 012°41'9 9.3
2017-Jan-19 09:33N 55°48' E 012°41'9 9.1
2017-Jan-19 08:33N 55°57' E 012°38'8 8.1
2017-Jan-19 07:34N 56°05' E 012°35'9 9.2
2017-Jan-19 06:34N 56°10' E 012°21'88 8.8
2017-Jan-18 20:34N 57°00' E 010°10'5 4.5
2017-Jan-18 19:33N 57°03' E 010°03'0 0.0
2017-Jan-18 18:30N 57°03' E 010°03'0 0.0
2017-Jan-18 17:30N 57°03' E 010°03'0 0.0
2017-Jan-18 16:30N 57°03' E 010°03'0 0.0
2017-Jan-18 15:30N 57°03' E 010°03'0 0.0
2017-Jan-18 14:33N 57°03' E 010°03'0 0.1
2017-Jan-18 13:34N 57°03' E 010°04'11 8.0
2017-Jan-18 12:13N 56°58' E 010°21'35 2.5
2017-Jan-17 22:13N 57°30' E 010°44'5 8.3
2017-Jan-17 21:33N 57°36' E 010°44'10 9.7
2017-Jan-17 20:33N 57°46' E 010°45'9 9.1
2017-Jan-17 19:33N 57°54' E 010°40'9 9.2
2017-Jan-17 18:33N 58°03' E 010°32'63 8.8
2017-Jan-17 11:23N 59°01' E 009°45'  
Track history (hours):
 
Tides and Currents Weather Stations Pressure Air Temp Water Temp Dewpoint Dewpoint Depression Visibility Wind Speed Wind Dir Waves Ship Positions

Kaami

Last reported at 2017-Jan-24 07:16 UTC. Time now 2017-Jan-24 23:30 UTC.
Position N 60°05' E 019°16'.

Length 90 m; draft 3.5 m.

Type: Cargo ship. MMSI: 308542000.

Date/timePositionNaut miles runAvg speedWind from/ knotsBaromVisibWave heightAir tempDewpointWater temp
2017-Jan-24 07:16N 60°05' E 019°16'7 9.1
2017-Jan-24 06:33N 59°60' E 019°25'13 8.9
2017-Jan-24 05:08N 59°50' E 019°41'8 8.8
2017-Jan-24 04:11N 59°43' E 019°51'  
2017-Jan-20 20:32N 55°35' E 015°17'8 8.3
2017-Jan-20 19:33N 55°31' E 015°04'8 8.4
2017-Jan-20 18:33N 55°27' E 014°51'9 8.6
2017-Jan-20 17:33N 55°22' E 014°38'8 8.1
2017-Jan-20 16:33N 55°16' E 014°30'6 6.2
2017-Jan-20 15:33N 55°10' E 014°28'7 7.1
2017-Jan-20 14:33N 55°05' E 014°38'2 1.7
2017-Jan-20 13:31N 55°06' E 014°41'0 0.0
2017-Jan-20 12:31N 55°06' E 014°41'0 0.0
2017-Jan-20 11:31N 55°06' E 014°41'0 0.0
2017-Jan-20 10:31N 55°06' E 014°41'0 0.0
2017-Jan-20 09:31N 55°06' E 014°41'0 0.0
2017-Jan-20 08:31N 55°06' E 014°41'0 0.0
2017-Jan-20 07:31N 55°06' E 014°41'0 0.0
2017-Jan-20 06:31N 55°06' E 014°41'0 0.0
2017-Jan-20 05:31N 55°06' E 014°41'0 0.0
2017-Jan-20 04:31N 55°06' E 014°41'0 0.0
2017-Jan-20 03:31N 55°06' E 014°41'0 0.0
2017-Jan-20 02:31N 55°06' E 014°41'0 0.0
2017-Jan-20 01:31N 55°06' E 014°41'0 0.0
2017-Jan-20 00:31N 55°06' E 014°41'0 0.0
2017-Jan-19 23:31N 55°06' E 014°41'0 0.0
2017-Jan-19 22:31N 55°06' E 014°41'0 0.0
2017-Jan-19 21:31N 55°06' E 014°41'0 0.0
2017-Jan-19 20:33N 55°06' E 014°41'4 4.1
2017-Jan-19 19:33N 55°05' E 014°34'1010.1
2017-Jan-19 18:34N 55°07' E 014°17'1010.3
2017-Jan-19 17:33N 55°09' E 013°59'10 9.8
2017-Jan-19 16:31N 55°11' E 013°42'21 9.9
2017-Jan-19 14:22N 55°14' E 013°05'1010.1
2017-Jan-19 13:24N 55°16' E 012°48'7 8.0
2017-Jan-19 12:33N 55°20' E 012°39'9 9.2
2017-Jan-19 11:34N 55°30' E 012°41'9 9.3
2017-Jan-19 10:33N 55°39' E 012°41'9 9.3
2017-Jan-19 09:33N 55°48' E 012°41'9 9.1
2017-Jan-19 08:33N 55°57' E 012°38'8 8.1
2017-Jan-19 07:34N 56°05' E 012°35'9 9.2
2017-Jan-19 06:34N 56°10' E 012°21'88 8.8
2017-Jan-18 20:34N 57°00' E 010°10'5 4.5
2017-Jan-18 19:33N 57°03' E 010°03'0 0.0
2017-Jan-18 18:30N 57°03' E 010°03'0 0.0
2017-Jan-18 17:30N 57°03' E 010°03'0 0.0
2017-Jan-18 16:30N 57°03' E 010°03'0 0.0
2017-Jan-18 15:30N 57°03' E 010°03'0 0.0
2017-Jan-18 14:33N 57°03' E 010°03'0 0.1
2017-Jan-18 13:34N 57°03' E 010°04'11 8.0
2017-Jan-18 12:13N 56°58' E 010°21'35 2.5
2017-Jan-17 22:13N 57°30' E 010°44'5 8.3
2017-Jan-17 21:33N 57°36' E 010°44'10 9.7
2017-Jan-17 20:33N 57°46' E 010°45'9 9.1
2017-Jan-17 19:33N 57°54' E 010°40'9 9.2
2017-Jan-17 18:33N 58°03' E 010°32'63 8.8
2017-Jan-17 11:23N 59°01' E 009°45'  

Dump ship's entire track history